Terminal Aerodrome Forecast
Issued by NWS Louisville, KY

Home | Current Version | Previous Version | Text Only | Print | Product List | Glossary On
Versions: 1 2 3 4 5 6 7 8 9 10 11 12 13 14 15 16 17 18 19 20
035
FTUS43 KLMK 092033 AAA
TAFSDF
TAF AMD
KSDF 092033Z 0921/1024 28012G18KT 6SM -SHSN BR BKN027
      TEMPO 0921/1001 3SM -SHSN BR
     FM100900 28012KT P6SM BKN022
     FM102100 28012KT P6SM SCT025 BKN120=

USA.gov is the U.S. government's official web portal to all federal, state and local government web resources and services.